sensor_id;sensor_type;location;lat;lon;timestamp;pressure;altitude;pressure_sealevel;temperature;humidity
38400;BME280;24180;42.676;23.320;2023-03-13T00:01:16;94991.41;;;1.09;100.00
38400;BME280;24180;42.676;23.320;2023-03-13T00:03:42;95016.84;;;1.11;100.00
38400;BME280;24180;42.676;23.320;2023-03-13T00:06:08;95018.09;;;1.19;100.00
38400;BME280;24180;42.676;23.320;2023-03-13T00:08:34;95007.94;;;1.18;100.00
38400;BME280;24180;42.676;23.320;2023-03-13T00:11:07;95009.13;;;1.12;100.00
38400;BME280;24180;42.676;23.320;2023-03-13T00:13:33;95009.59;;;1.19;100.00
38400;BME280;24180;42.676;23.320;2023-03-13T00:16:04;95005.34;;;1.19;100.00
38400;BME280;24180;42.676;23.320;2023-03-13T00:18:30;95016.19;;;1.23;100.00
38400;BME280;24180;42.676;23.320;2023-03-13T00:21:04;95003.03;;;1.15;100.00
38400;BME280;24180;42.676;23.320;2023-03-13T00:23:29;95021.59;;;1.17;100.00
38400;BME280;24180;42.676;23.320;2023-03-13T00:26:01;95000.69;;;0.94;100.00
38400;BME280;24180;42.676;23.320;2023-03-13T00:28:28;95019.78;;;1.03;100.00
38400;BME280;24180;42.676;23.320;2023-03-13T00:33:31;95035.00;;;1.05;100.00
38400;BME280;24180;42.676;23.320;2023-03-13T00:36:01;94998.72;;;0.84;100.00
38400;BME280;24180;42.676;23.320;2023-03-13T00:38:29;95032.22;;;1.09;100.00
38400;BME280;24180;42.676;23.320;2023-03-13T00:41:08;95027.50;;;1.02;100.00
38400;BME280;24180;42.676;23.320;2023-03-13T00:43:37;95027.34;;;1.05;100.00
38400;BME280;24180;42.676;23.320;2023-03-13T00:46:02;94979.75;;;0.72;100.00
38400;BME280;24180;42.676;23.320;2023-03-13T00:48:28;95004.88;;;0.80;100.00
38400;BME280;24180;42.676;23.320;2023-03-13T00:50:54;95013.75;;;0.88;100.00
38400;BME280;24180;42.676;23.320;2023-03-13T00:53:20;95000.56;;;0.80;100.00
38400;BME280;24180;42.676;23.320;2023-03-13T00:55:52;95026.44;;;0.90;100.00
38400;BME280;24180;42.676;23.320;2023-03-13T00:58:19;95029.22;;;0.85;100.00
38400;BME280;24180;42.676;23.320;2023-03-13T01:00:44;95004.88;;;0.80;100.00
38400;BME280;24180;42.676;23.320;2023-03-13T01:03:10;94993.56;;;0.68;100.00
38400;BME280;24180;42.676;23.320;2023-03-13T01:05:35;95019.34;;;0.79;100.00
38400;BME280;24180;42.676;23.320;2023-03-13T01:08:00;95016.94;;;0.76;100.00
38400;BME280;24180;42.676;23.320;2023-03-13T01:10:26;94999.47;;;0.69;100.00
38400;BME280;24180;42.676;23.320;2023-03-13T01:12:51;94990.63;;;0.60;100.00
38400;BME280;24180;42.676;23.320;2023-03-13T01:15:17;95014.63;;;0.72;100.00
38400;BME280;24180;42.676;23.320;2023-03-13T01:17:44;95022.50;;;0.67;100.00
38400;BME280;24180;42.676;23.320;2023-03-13T01:20:10;94998.38;;;0.57;100.00
38400;BME280;24180;42.676;23.320;2023-03-13T01:22:36;95006.91;;;0.73;100.00
38400;BME280;24180;42.676;23.320;2023-03-13T01:25:01;94993.47;;;0.54;100.00
38400;BME280;24180;42.676;23.320;2023-03-13T01:27:28;95000.03;;;0.58;100.00
38400;BME280;24180;42.676;23.320;2023-03-13T01:29:53;94971.09;;;0.43;100.00
38400;BME280;24180;42.676;23.320;2023-03-13T01:32:19;95021.22;;;0.76;100.00
38400;BME280;24180;42.676;23.320;2023-03-13T01:34:44;95000.03;;;0.58;100.00
38400;BME280;24180;42.676;23.320;2023-03-13T01:37:09;95024.97;;;0.69;100.00
38400;BME280;24180;42.676;23.320;2023-03-13T01:39:35;95018.53;;;0.62;100.00
38400;BME280;24180;42.676;23.320;2023-03-13T01:42:02;95036.59;;;0.57;100.00
38400;BME280;24180;42.676;23.320;2023-03-13T01:44:28;95042.97;;;0.48;100.00
38400;BME280;24180;42.676;23.320;2023-03-13T01:46:53;95040.88;;;0.57;100.00
38400;BME280;24180;42.676;23.320;2023-03-13T01:49:26;95017.31;;;0.36;100.00
38400;BME280;24180;42.676;23.320;2023-03-13T01:51:55;95020.44;;;0.41;100.00
38400;BME280;24180;42.676;23.320;2023-03-13T01:54:28;95023.97;;;0.38;100.00
38400;BME280;24180;42.676;23.320;2023-03-13T01:57:47;95018.44;;;0.30;100.00
38400;BME280;24180;42.676;23.320;2023-03-13T02:00:08;95018.66;;;0.43;100.00
38400;BME280;24180;42.676;23.320;2023-03-13T02:02:37;95053.78;;;0.54;100.00
38400;BME280;24180;42.676;23.320;2023-03-13T02:05:05;95010.03;;;0.45;100.00
38400;BME280;24180;42.676;23.320;2023-03-13T02:07:44;95040.69;;;0.44;100.00
38400;BME280;24180;42.676;23.320;2023-03-13T02:10:13;95020.44;;;0.41;100.00
38400;BME280;24180;42.676;23.320;2023-03-13T02:12:42;95026.13;;;0.29;100.00
38400;BME280;24180;42.676;23.320;2023-03-13T02:15:18;95021.50;;;0.03;100.00
38400;BME280;24180;42.676;23.320;2023-03-13T02:17:44;95048.16;;;0.30;100.00
38400;BME280;24180;42.676;23.320;2023-03-13T02:20:13;95019.78;;;0.03;100.00
38400;BME280;24180;42.676;23.320;2023-03-13T02:30:17;95039.78;;;0.11;100.00
38400;BME280;24180;42.676;23.320;2023-03-13T02:32:43;95065.25;;;0.28;100.00
38400;BME280;24180;42.676;23.320;2023-03-13T02:35:12;95050.28;;;0.22;100.00
38400;BME280;24180;42.676;23.320;2023-03-13T02:37:41;95083.53;;;0.36;100.00
38400;BME280;24180;42.676;23.320;2023-03-13T02:40:13;95071.53;;;0.21;100.00
38400;BME280;24180;42.676;23.320;2023-03-13T02:42:44;95079.94;;;0.23;100.00
38400;BME280;24180;42.676;23.320;2023-03-13T02:45:12;95097.44;;;0.29;100.00
38400;BME280;24180;42.676;23.320;2023-03-13T02:47:38;95101.19;;;0.22;100.00
38400;BME280;24180;42.676;23.320;2023-03-13T02:50:03;95092.28;;;0.13;100.00
38400;BME280;24180;42.676;23.320;2023-03-13T02:52:32;95112.00;;;0.27;100.00
38400;BME280;24180;42.676;23.320;2023-03-13T02:55:05;95089.00;;;0.11;100.00
38400;BME280;24180;42.676;23.320;2023-03-13T02:57:32;95089.41;;;0.02;100.00
38400;BME280;24180;42.676;23.320;2023-03-13T02:59:58;95086.41;;;-0.06;100.00
38400;BME280;24180;42.676;23.320;2023-03-13T03:02:23;95108.22;;;-0.01;100.00
38400;BME280;24180;42.676;23.320;2023-03-13T03:04:49;95101.06;;;-0.11;100.00
38400;BME280;24180;42.676;23.320;2023-03-13T03:07:14;95079.97;;;-0.32;100.00
38400;BME280;24180;42.676;23.320;2023-03-13T03:09:40;95096.22;;;-0.34;100.00
38400;BME280;24180;42.676;23.320;2023-03-13T03:12:05;95102.88;;;-0.32;100.00
38400;BME280;24180;42.676;23.320;2023-03-13T03:14:31;95073.56;;;-0.58;100.00
38400;BME280;24180;42.676;23.320;2023-03-13T03:16:56;95083.88;;;-0.61;100.00
38400;BME280;24180;42.676;23.320;2023-03-13T03:19:22;95116.25;;;-0.45;100.00
38400;BME280;24180;42.676;23.320;2023-03-13T03:21:47;95126.63;;;-0.50;100.00
38400;BME280;24180;42.676;23.320;2023-03-13T03:24:14;95099.09;;;-0.79;100.00
38400;BME280;24180;42.676;23.320;2023-03-13T03:26:39;95119.25;;;-0.75;100.00
38400;BME280;24180;42.676;23.320;2023-03-13T03:29:04;95129.03;;;-0.66;100.00
38400;BME280;24180;42.676;23.320;2023-03-13T03:31:32;95136.66;;;-0.66;100.00
38400;BME280;24180;42.676;23.320;2023-03-13T03:33:57;95124.41;;;-0.76;100.00
38400;BME280;24180;42.676;23.320;2023-03-13T03:36:22;95150.34;;;-0.68;100.00
38400;BME280;24180;42.676;23.320;2023-03-13T03:38:49;95134.84;;;-0.82;100.00
38400;BME280;24180;42.676;23.320;2023-03-13T03:41:15;95153.63;;;-0.66;100.00
38400;BME280;24180;42.676;23.320;2023-03-13T03:43:41;95130.28;;;-0.95;100.00
38400;BME280;24180;42.676;23.320;2023-03-13T03:46:07;95140.44;;;-0.95;100.00
38400;BME280;24180;42.676;23.320;2023-03-13T03:48:33;95164.78;;;-0.89;100.00
38400;BME280;24180;42.676;23.320;2023-03-13T03:50:58;95154.13;;;-0.97;100.00
38400;BME280;24180;42.676;23.320;2023-03-13T03:53:24;95184.72;;;-0.80;100.00
38400;BME280;24180;42.676;23.320;2023-03-13T03:55:50;95172.34;;;-0.87;100.00
38400;BME280;24180;42.676;23.320;2023-03-13T03:58:15;95169.03;;;-0.89;100.00
38400;BME280;24180;42.676;23.320;2023-03-13T04:00:45;95184.94;;;-0.84;100.00
38400;BME280;24180;42.676;23.320;2023-03-13T04:03:12;95189.09;;;-0.83;100.00
38400;BME280;24180;42.676;23.320;2023-03-13T04:05:38;95168.69;;;-1.01;100.00
38400;BME280;24180;42.676;23.320;2023-03-13T04:08:04;95168.69;;;-1.01;100.00
38400;BME280;24180;42.676;23.320;2023-03-13T04:10:29;95165.41;;;-1.04;100.00
38400;BME280;24180;42.676;23.320;2023-03-13T04:12:54;95206.97;;;-0.85;100.00
38400;BME280;24180;42.676;23.320;2023-03-13T04:15:20;95183.16;;;-1.03;100.00
38400;BME280;24180;42.676;23.320;2023-03-13T04:17:45;95171.84;;;-1.16;100.00
38400;BME280;24180;42.676;23.320;2023-03-13T04:20:11;95214.16;;;-0.95;100.00
38400;BME280;24180;42.676;23.320;2023-03-13T04:22:39;95184.72;;;-1.00;100.00
38400;BME280;24180;42.676;23.320;2023-03-13T04:25:05;95217.25;;;-0.88;100.00
38400;BME280;24180;42.676;23.320;2023-03-13T04:27:32;95214.66;;;-1.07;100.00
38400;BME280;24180;42.676;23.320;2023-03-13T04:29:57;95195.84;;;-1.23;100.00
38400;BME280;24180;42.676;23.320;2023-03-13T04:32:23;95234.47;;;-1.15;100.00
38400;BME280;24180;42.676;23.320;2023-03-13T04:34:48;95210.22;;;-1.22;100.00
38400;BME280;24180;42.676;23.320;2023-03-13T04:37:14;95210.53;;;-1.29;100.00
38400;BME280;24180;42.676;23.320;2023-03-13T04:39:39;95229.44;;;-1.16;100.00
38400;BME280;24180;42.676;23.320;2023-03-13T04:42:04;95246.16;;;-1.11;100.00
38400;BME280;24180;42.676;23.320;2023-03-13T04:44:30;95254.69;;;-0.91;100.00
38400;BME280;24180;42.676;23.320;2023-03-13T04:46:55;95254.09;;;-0.76;100.00
38400;BME280;24180;42.676;23.320;2023-03-13T04:49:21;95250.75;;;-0.78;100.00
38400;BME280;24180;42.676;23.320;2023-03-13T04:51:46;95230.03;;;-1.10;100.00
38400;BME280;24180;42.676;23.320;2023-03-13T04:54:12;95268.38;;;-0.94;100.00
38400;BME280;24180;42.676;23.320;2023-03-13T04:56:37;95265.34;;;-1.04;100.00
38400;BME280;24180;42.676;23.320;2023-03-13T04:59:03;95229.75;;;-1.24;100.00
38400;BME280;24180;42.676;23.320;2023-03-13T05:01:29;95233.59;;;-1.14;100.00
38400;BME280;24180;42.676;23.320;2023-03-13T05:03:54;95238.56;;;-0.90;100.00
38400;BME280;24180;42.676;23.320;2023-03-13T05:06:19;95248.88;;;-0.73;100.00
38400;BME280;24180;42.676;23.320;2023-03-13T05:08:45;95264.94;;;-0.93;100.00
38400;BME280;24180;42.676;23.320;2023-03-13T05:11:10;95263.22;;;-1.13;100.00
38400;BME280;24180;42.676;23.320;2023-03-13T05:13:36;95244.59;;;-1.13;100.00
38400;BME280;24180;42.676;23.320;2023-03-13T05:16:02;95272.63;;;-0.95;100.00
38400;BME280;24180;42.676;23.320;2023-03-13T05:18:27;95212.69;;;-1.40;100.00
38400;BME280;24180;42.676;23.320;2023-03-13T05:20:52;95250.81;;;-1.00;100.00
38400;BME280;24180;42.676;23.320;2023-03-13T05:23:18;95268.19;;;-0.89;100.00
38400;BME280;24180;42.676;23.320;2023-03-13T05:25:43;95253.06;;;-0.92;100.00
38400;BME280;24180;42.676;23.320;2023-03-13T05:28:09;95259.72;;;-0.90;100.00
38400;BME280;24180;42.676;23.320;2023-03-13T05:30:34;95281.91;;;-0.73;100.00
38400;BME280;24180;42.676;23.320;2023-03-13T05:32:59;95286.88;;;-0.70;100.00
38400;BME280;24180;42.676;23.320;2023-03-13T05:35:25;95286.31;;;-0.77;100.00
38400;BME280;24180;42.676;23.320;2023-03-13T05:37:50;95298.06;;;-0.54;100.00
38400;BME280;24180;42.676;23.320;2023-03-13T05:40:16;95296.97;;;-0.49;100.00
38400;BME280;24180;42.676;23.320;2023-03-13T05:42:42;95298.00;;;-0.53;100.00
38400;BME280;24180;42.676;23.320;2023-03-13T05:45:08;95298.28;;;-0.40;100.00
38400;BME280;24180;42.676;23.320;2023-03-13T05:47:35;95290.56;;;-0.37;100.00
38400;BME280;24180;42.676;23.320;2023-03-13T05:50:00;95273.78;;;-0.61;100.00
38400;BME280;24180;42.676;23.320;2023-03-13T05:52:26;95273.59;;;-0.57;100.00
38400;BME280;24180;42.676;23.320;2023-03-13T05:54:52;95306.94;;;-0.44;100.00
38400;BME280;24180;42.676;23.320;2023-03-13T05:57:17;95285.19;;;-0.51;100.00
38400;BME280;24180;42.676;23.320;2023-03-13T05:59:43;95317.09;;;-0.24;100.00
38400;BME280;24180;42.676;23.320;2023-03-13T06:02:08;95298.94;;;-0.35;100.00
38400;BME280;24180;42.676;23.320;2023-03-13T06:04:34;95311.41;;;-0.29;100.00
38400;BME280;24180;42.676;23.320;2023-03-13T06:07:00;95292.69;;;-0.28;100.00
38400;BME280;24180;42.676;23.320;2023-03-13T06:09:26;95297.25;;;-0.16;100.00
38400;BME280;24180;42.676;23.320;2023-03-13T06:11:51;95302.91;;;-0.09;100.00
38400;BME280;24180;42.676;23.320;2023-03-13T06:14:16;95291.25;;;-0.15;100.00
38400;BME280;24180;42.676;23.320;2023-03-13T06:16:42;95312.50;;;0.23;100.00
38400;BME280;24180;42.676;23.320;2023-03-13T06:19:08;95297.81;;;0.28;100.00
38400;BME280;24180;42.676;23.320;2023-03-13T06:21:33;95293.50;;;0.12;100.00
38400;BME280;24180;42.676;23.320;2023-03-13T06:23:58;95317.72;;;0.20;100.00
38400;BME280;24180;42.676;23.320;2023-03-13T06:26:24;95327.66;;;0.26;100.00
38400;BME280;24180;42.676;23.320;2023-03-13T06:28:50;95298.84;;;0.06;100.00
38400;BME280;24180;42.676;23.320;2023-03-13T06:31:15;95320.50;;;0.16;100.00
38400;BME280;24180;42.676;23.320;2023-03-13T06:33:41;95321.13;;;0.39;100.00
38400;BME280;24180;42.676;23.320;2023-03-13T06:36:07;95285.91;;;0.29;100.00
38400;BME280;24180;42.676;23.320;2023-03-13T06:38:32;95294.88;;;0.37;100.00
38400;BME280;24180;42.676;23.320;2023-03-13T06:40:58;95272.72;;;0.21;100.00
38400;BME280;24180;42.676;23.320;2023-03-13T06:43:24;95296.09;;;0.29;100.00
38400;BME280;24180;42.676;23.320;2023-03-13T06:45:49;95308.50;;;0.36;100.00
38400;BME280;24180;42.676;23.320;2023-03-13T06:48:15;95300.97;;;0.71;100.00
38400;BME280;24180;42.676;23.320;2023-03-13T06:50:41;95298.31;;;0.55;100.00
38400;BME280;24180;42.676;23.320;2023-03-13T06:53:06;95268.22;;;0.63;100.00
38400;BME280;24180;42.676;23.320;2023-03-13T06:55:32;95289.00;;;0.90;100.00
38400;BME280;24180;42.676;23.320;2023-03-13T06:57:57;95306.22;;;1.21;100.00
38400;BME280;24180;42.676;23.320;2023-03-13T07:00:23;95302.47;;;1.28;100.00
38400;BME280;24180;42.676;23.320;2023-03-13T07:02:49;95289.13;;;1.23;100.00
38400;BME280;24180;42.676;23.320;2023-03-13T07:05:15;95297.97;;;1.33;100.00
38400;BME280;24180;42.676;23.320;2023-03-13T07:07:41;95299.91;;;1.45;100.00
38400;BME280;24180;42.676;23.320;2023-03-13T07:10:08;95298.63;;;1.36;100.00
38400;BME280;24180;42.676;23.320;2023-03-13T07:12:35;95302.78;;;1.56;100.00
38400;BME280;24180;42.676;23.320;2023-03-13T07:15:00;95290.38;;;1.66;100.00
38400;BME280;24180;42.676;23.320;2023-03-13T07:17:26;95275.31;;;1.44;100.00
38400;BME280;24180;42.676;23.320;2023-03-13T07:19:51;95288.53;;;1.52;100.00
38400;BME280;24180;42.676;23.320;2023-03-13T07:22:17;95295.75;;;1.77;100.00
38400;BME280;24180;42.676;23.320;2023-03-13T07:24:42;95292.66;;;1.87;100.00
38400;BME280;24180;42.676;23.320;2023-03-13T07:27:07;95293.25;;;1.93;100.00
38400;BME280;24180;42.676;23.320;2023-03-13T07:29:33;95273.41;;;1.98;100.00
38400;BME280;24180;42.676;23.320;2023-03-13T07:31:58;95288.09;;;2.10;100.00
38400;BME280;24180;42.676;23.320;2023-03-13T07:34:24;95291.81;;;2.20;100.00
38400;BME280;24180;42.676;23.320;2023-03-13T07:36:49;95277.25;;;2.38;100.00
38400;BME280;24180;42.676;23.320;2023-03-13T07:39:14;95279.66;;;2.56;100.00
38400;BME280;24180;42.676;23.320;2023-03-13T07:41:40;95274.19;;;2.62;100.00
38400;BME280;24180;42.676;23.320;2023-03-13T07:44:06;95276.69;;;2.64;100.00
38400;BME280;24180;42.676;23.320;2023-03-13T07:46:31;95297.09;;;2.95;100.00
38400;BME280;24180;42.676;23.320;2023-03-13T07:48:57;95277.38;;;2.81;100.00
38400;BME280;24180;42.676;23.320;2023-03-13T07:51:23;95306.19;;;3.01;100.00
38400;BME280;24180;42.676;23.320;2023-03-13T07:53:49;95252.06;;;2.77;100.00
38400;BME280;24180;42.676;23.320;2023-03-13T07:56:18;95276.13;;;3.04;100.00
38400;BME280;24180;42.676;23.320;2023-03-13T07:58:44;95293.53;;;2.98;100.00
38400;BME280;24180;42.676;23.320;2023-03-13T08:01:16;95290.38;;;3.24;100.00
38400;BME280;24180;42.676;23.320;2023-03-13T08:03:42;95285.28;;;3.38;100.00
38400;BME280;24180;42.676;23.320;2023-03-13T08:06:11;95278.88;;;3.45;100.00
38400;BME280;24180;42.676;23.320;2023-03-13T08:08:37;95283.09;;;3.46;100.00
38400;BME280;24180;42.676;23.320;2023-03-13T08:11:24;95288.31;;;3.45;100.00
38400;BME280;24180;42.676;23.320;2023-03-13T08:13:50;95282.38;;;3.44;100.00
38400;BME280;24180;42.676;23.320;2023-03-13T08:16:18;95250.44;;;3.36;100.00
38400;BME280;24180;42.676;23.320;2023-03-13T08:18:46;95248.72;;;3.50;100.00
38400;BME280;24180;42.676;23.320;2023-03-13T08:21:14;95274.38;;;3.78;100.00
38400;BME280;24180;42.676;23.320;2023-03-13T08:23:40;95276.84;;;3.94;99.72
38400;BME280;24180;42.676;23.320;2023-03-13T08:26:11;95272.47;;;4.10;98.96
38400;BME280;24180;42.676;23.320;2023-03-13T08:28:38;95281.06;;;4.23;95.84
38400;BME280;24180;42.676;23.320;2023-03-13T08:31:10;95243.81;;;3.90;97.26
38400;BME280;24180;42.676;23.320;2023-03-13T08:33:36;95283.63;;;4.09;96.12
38400;BME280;24180;42.676;23.320;2023-03-13T08:36:14;95277.75;;;4.36;97.36
38400;BME280;24180;42.676;23.320;2023-03-13T08:38:40;95285.69;;;4.59;94.91
38400;BME280;24180;42.676;23.320;2023-03-13T08:41:13;95276.41;;;4.71;93.34
38400;BME280;24180;42.676;23.320;2023-03-13T08:43:39;95289.84;;;4.89;91.67
38400;BME280;24180;42.676;23.320;2023-03-13T08:46:04;95277.78;;;4.77;89.65
38400;BME280;24180;42.676;23.320;2023-03-13T08:48:30;95276.06;;;4.90;90.18
38400;BME280;24180;42.676;23.320;2023-03-13T08:53:29;95275.94;;;5.05;86.32
38400;BME280;24180;42.676;23.320;2023-03-13T08:55:54;95254.09;;;4.86;85.07
38400;BME280;24180;42.676;23.320;2023-03-13T08:58:20;95271.53;;;5.07;84.38
38400;BME280;24180;42.676;23.320;2023-03-13T09:00:45;95272.50;;;4.92;84.21
38400;BME280;24180;42.676;23.320;2023-03-13T09:03:11;95266.50;;;4.79;84.95
38400;BME280;24180;42.676;23.320;2023-03-13T09:05:37;95236.56;;;4.65;86.71
38400;BME280;24180;42.676;23.320;2023-03-13T09:08:03;95272.94;;;4.99;87.13
38400;BME280;24180;42.676;23.320;2023-03-13T09:10:28;95272.88;;;5.13;86.97
38400;BME280;24180;42.676;23.320;2023-03-13T09:12:54;95280.91;;;5.21;85.42
38400;BME280;24180;42.676;23.320;2023-03-13T09:15:19;95248.47;;;5.20;84.22
38400;BME280;24180;42.676;23.320;2023-03-13T09:17:45;95258.97;;;5.42;81.76
38400;BME280;24180;42.676;23.320;2023-03-13T09:20:11;95250.44;;;5.29;82.95
38400;BME280;24180;42.676;23.320;2023-03-13T09:22:36;95235.34;;;5.37;82.08
38400;BME280;24180;42.676;23.320;2023-03-13T09:25:01;95234.34;;;5.52;82.13
38400;BME280;24180;42.676;23.320;2023-03-13T09:27:27;95243.81;;;5.77;81.91
38400;BME280;24180;42.676;23.320;2023-03-13T09:29:53;95222.22;;;5.80;80.34
38400;BME280;24180;42.676;23.320;2023-03-13T09:32:18;95270.25;;;6.04;80.19
38400;BME280;24180;42.676;23.320;2023-03-13T09:34:45;95261.09;;;6.13;78.40
38400;BME280;24180;42.676;23.320;2023-03-13T09:37:11;95264.59;;;6.12;78.66
38400;BME280;24180;42.676;23.320;2023-03-13T09:39:37;95263.53;;;6.27;77.91
38400;BME280;24180;42.676;23.320;2023-03-13T09:42:13;95229.81;;;6.19;75.18
38400;BME280;24180;42.676;23.320;2023-03-13T09:44:54;95262.66;;;6.65;73.67
38400;BME280;24180;42.676;23.320;2023-03-13T09:47:27;95251.38;;;6.78;72.24
38400;BME280;24180;42.676;23.320;2023-03-13T09:52:48;95249.06;;;7.91;67.95
38400;BME280;24180;42.676;23.320;2023-03-13T09:55:19;95240.97;;;9.48;62.89
38400;BME280;24180;42.676;23.320;2023-03-13T10:02:59;95208.59;;;14.57;41.78
38400;BME280;24180;42.676;23.320;2023-03-13T10:05:28;95233.00;;;15.48;37.92
38400;BME280;24180;42.676;23.320;2023-03-13T10:08:15;95201.47;;;16.14;36.53
38400;BME280;24180;42.676;23.320;2023-03-13T10:10:49;95192.25;;;16.43;34.97
38400;BME280;24180;42.676;23.320;2023-03-13T10:13:27;95222.25;;;15.67;35.07
38400;BME280;24180;42.676;23.320;2023-03-13T10:16:03;95192.66;;;15.18;35.87
38400;BME280;24180;42.676;23.320;2023-03-13T10:18:35;95205.38;;;16.81;34.37
38400;BME280;24180;42.676;23.320;2023-03-13T10:21:11;95192.19;;;17.59;34.36
38400;BME280;24180;42.676;23.320;2023-03-13T10:23:38;95192.63;;;19.17;32.36
38400;BME280;24180;42.676;23.320;2023-03-13T10:26:12;95183.06;;;19.95;30.14
38400;BME280;24180;42.676;23.320;2023-03-13T10:28:39;95180.59;;;20.42;29.14
38400;BME280;24180;42.676;23.320;2023-03-13T10:31:20;95178.88;;;20.63;28.60
38400;BME280;24180;42.676;23.320;2023-03-13T10:33:48;95171.56;;;20.99;28.43
38400;BME280;24180;42.676;23.320;2023-03-13T10:36:13;95174.19;;;21.60;28.01
38400;BME280;24180;42.676;23.320;2023-03-13T10:38:50;95141.78;;;22.05;26.59
38400;BME280;24180;42.676;23.320;2023-03-13T10:43:53;95174.03;;;23.04;25.53
38400;BME280;24180;42.676;23.320;2023-03-13T10:46:33;95136.03;;;21.36;26.66
38400;BME280;24180;42.676;23.320;2023-03-13T10:49:01;95153.28;;;20.43;27.65
38400;BME280;24180;42.676;23.320;2023-03-13T10:51:37;95131.47;;;20.97;26.98
38400;BME280;24180;42.676;23.320;2023-03-13T10:57:08;95156.06;;;19.16;28.46
38400;BME280;24180;42.676;23.320;2023-03-13T10:59:42;95145.69;;;19.72;28.09
38400;BME280;24180;42.676;23.320;2023-03-13T11:02:21;95132.03;;;20.10;28.04
38400;BME280;24180;42.676;23.320;2023-03-13T11:04:47;95118.56;;;21.15;27.07
38400;BME280;24180;42.676;23.320;2023-03-13T11:07:37;95103.00;;;22.12;26.03
38400;BME280;24180;42.676;23.320;2023-03-13T11:12:50;95097.44;;;23.67;24.46
38400;BME280;24180;42.676;23.320;2023-03-13T11:15:23;95094.50;;;24.24;23.71
38400;BME280;24180;42.676;23.320;2023-03-13T11:17:58;95084.50;;;24.27;23.84
38400;BME280;24180;42.676;23.320;2023-03-13T11:20:27;95103.03;;;25.29;23.12
38400;BME280;24180;42.676;23.320;2023-03-13T11:26:28;95113.72;;;23.32;24.17
38400;BME280;24180;42.676;23.320;2023-03-13T11:31:37;95090.09;;;20.78;26.22
38400;BME280;24180;42.676;23.320;2023-03-13T11:37:17;95105.78;;;18.98;28.47
38400;BME280;24180;42.676;23.320;2023-03-13T11:53:34;95077.25;;;12.16;39.08
38400;BME280;24180;42.676;23.320;2023-03-13T11:56:14;95035.50;;;11.46;39.56
38400;BME280;24180;42.676;23.320;2023-03-13T12:01:18;95053.00;;;11.24;41.49
38400;BME280;24180;42.676;23.320;2023-03-13T12:06:44;95031.56;;;10.38;45.17
38400;BME280;24180;42.676;23.320;2023-03-13T12:11:56;95046.69;;;10.42;45.51
38400;BME280;24180;42.676;23.320;2023-03-13T12:14:44;95010.75;;;9.99;46.69
38400;BME280;24180;42.676;23.320;2023-03-13T12:17:28;95045.53;;;10.06;46.72
38400;BME280;24180;42.676;23.320;2023-03-13T12:22:26;95040.16;;;9.88;48.18
38400;BME280;24180;42.676;23.320;2023-03-13T12:25:10;95037.84;;;9.95;48.32
38400;BME280;24180;42.676;23.320;2023-03-13T12:27:50;95024.78;;;9.97;48.17
38400;BME280;24180;42.676;23.320;2023-03-13T12:30:36;95042.25;;;10.04;48.56
38400;BME280;24180;42.676;23.320;2023-03-13T12:33:23;95027.81;;;10.11;47.92
38400;BME280;24180;42.676;23.320;2023-03-13T12:36:30;95023.06;;;10.07;48.38
38400;BME280;24180;42.676;23.320;2023-03-13T12:44:43;94989.81;;;10.02;49.44
38400;BME280;24180;42.676;23.320;2023-03-13T12:52:34;94992.03;;;10.16;48.68
38400;BME280;24180;42.676;23.320;2023-03-13T13:00:52;95026.66;;;10.54;48.20
38400;BME280;24180;42.676;23.320;2023-03-13T13:03:28;94987.63;;;10.07;48.63
38400;BME280;24180;42.676;23.320;2023-03-13T13:08:35;95027.06;;;10.40;47.96
38400;BME280;24180;42.676;23.320;2023-03-13T13:17:03;95020.81;;;10.23;48.60
38400;BME280;24180;42.676;23.320;2023-03-13T13:25:27;95022.84;;;10.39;47.31
38400;BME280;24180;42.676;23.320;2023-03-13T13:27:54;94991.75;;;10.19;46.73
38400;BME280;24180;42.676;23.320;2023-03-13T13:32:47;94988.75;;;10.14;48.00
38400;BME280;24180;42.676;23.320;2023-03-13T13:35:22;94978.41;;;10.14;48.54
38400;BME280;24180;42.676;23.320;2023-03-13T13:37:48;95007.31;;;10.29;48.00
38400;BME280;24180;42.676;23.320;2023-03-13T13:42:49;95012.75;;;10.36;47.01
38400;BME280;24180;42.676;23.320;2023-03-13T13:47:43;95002.00;;;10.30;47.95
38400;BME280;24180;42.676;23.320;2023-03-13T13:52:44;94997.09;;;10.37;47.26
38400;BME280;24180;42.676;23.320;2023-03-13T13:58:16;94991.34;;;10.53;47.08
38400;BME280;24180;42.676;23.320;2023-03-13T14:00:47;94985.38;;;10.43;47.58
38400;BME280;24180;42.676;23.320;2023-03-13T14:03:22;94988.09;;;10.41;47.59
38400;BME280;24180;42.676;23.320;2023-03-13T14:05:52;94963.16;;;10.40;48.12
38400;BME280;24180;42.676;23.320;2023-03-13T14:08:25;94988.38;;;10.67;47.54
38400;BME280;24180;42.676;23.320;2023-03-13T14:13:35;94950.75;;;10.44;47.08
38400;BME280;24180;42.676;23.320;2023-03-13T14:16:19;94971.59;;;10.52;46.36
38400;BME280;24180;42.676;23.320;2023-03-13T14:18:45;94972.41;;;10.52;46.48
38400;BME280;24180;42.676;23.320;2023-03-13T14:21:12;94951.44;;;10.46;46.17
38400;BME280;24180;42.676;23.320;2023-03-13T14:23:45;94980.47;;;10.59;46.05
38400;BME280;24180;42.676;23.320;2023-03-13T14:28:42;94975.94;;;10.70;46.21
38400;BME280;24180;42.676;23.320;2023-03-13T14:31:08;94951.69;;;10.52;47.17
38400;BME280;24180;42.676;23.320;2023-03-13T14:33:36;94928.69;;;10.40;46.66
38400;BME280;24180;42.676;23.320;2023-03-13T14:36:02;94979.91;;;10.65;46.20
38400;BME280;24180;42.676;23.320;2023-03-13T14:38:28;94979.25;;;10.63;47.83
38400;BME280;24180;42.676;23.320;2023-03-13T14:40:58;94972.41;;;10.52;46.82
38400;BME280;24180;42.676;23.320;2023-03-13T14:43:34;94972.69;;;10.59;45.91
38400;BME280;24180;42.676;23.320;2023-03-13T14:46:12;94948.69;;;10.47;46.11